createdAt,value
2022-08-14T00:01:11.487Z,7.20
2022-08-14T00:03:40.762Z,7.43
2022-08-14T00:06:25.755Z,6.70
2022-08-14T00:08:58.978Z,6.83
2022-08-14T00:11:31.406Z,7.30
2022-08-14T00:14:01.580Z,6.40
2022-08-14T00:16:41.198Z,6.40
2022-08-14T00:19:18.565Z,6.90
2022-08-14T00:21:47.120Z,8.17
2022-08-14T00:24:13.788Z,6.93
2022-08-14T00:26:49.946Z,6.80
2022-08-14T00:29:21.347Z,6.57
2022-08-14T00:31:53.869Z,7.10
2022-08-14T00:34:37.726Z,6.80
2022-08-14T00:37:10.994Z,6.87
2022-08-14T00:39:37.977Z,7.20
2022-08-14T00:42:05.164Z,6.33
2022-08-14T00:44:33.296Z,6.47
2022-08-14T00:47:10.802Z,6.53
2022-08-14T00:49:42.828Z,8.07
2022-08-14T00:52:14.218Z,7.50
2022-08-14T00:54:46.331Z,8.10
2022-08-14T00:57:13.510Z,7.20
2022-08-14T00:59:40.128Z,7.63
2022-08-14T01:02:09.226Z,6.90
2022-08-14T01:04:51.166Z,7.17
2022-08-14T01:07:21.779Z,6.93
2022-08-14T01:09:55.205Z,7.60
2022-08-14T01:12:27.148Z,7.70
2022-08-14T01:14:59.970Z,7.17
2022-08-14T01:17:50.722Z,6.40
2022-08-14T01:20:40.072Z,7.10
2022-08-14T01:23:16.585Z,7.07
2022-08-14T01:25:51.357Z,7.23
2022-08-14T01:28:46.440Z,7.67
2022-08-14T01:31:12.478Z,7.43
2022-08-14T01:35:16.541Z,7.93
2022-08-14T01:36:36.754Z,7.00
2022-08-14T01:39:09.690Z,7.10
2022-08-14T01:41:41.218Z,6.90
2022-08-14T01:44:32.073Z,7.30
2022-08-14T01:47:01.127Z,7.17
2022-08-14T01:49:33.502Z,7.70
2022-08-14T01:52:03.647Z,7.40
2022-08-14T01:54:38.145Z,7.00
2022-08-14T01:57:11.483Z,6.40
2022-08-14T01:59:41.116Z,6.50
2022-08-14T02:02:18.973Z,6.00
2022-08-14T02:04:56.237Z,7.30
2022-08-14T02:07:34.663Z,6.87
2022-08-14T02:10:15.976Z,7.10
2022-08-14T02:12:54.319Z,7.37
2022-08-14T02:15:25.474Z,6.93
2022-08-14T02:17:52.459Z,7.20
2022-08-14T02:20:23.768Z,7.63
2022-08-14T02:22:54.736Z,7.20
2022-08-14T02:25:22.477Z,7.23
2022-08-14T02:28:25.075Z,7.17
2022-08-14T02:30:38.563Z,7.73
2022-08-14T02:33:07.019Z,6.30
2022-08-14T02:35:33.518Z,6.30
2022-08-14T02:38:07.420Z,6.63
2022-08-14T02:40:38.652Z,6.07
2022-08-14T02:43:07.844Z,6.60
2022-08-14T02:45:38.933Z,8.40
2022-08-14T02:49:03.907Z,6.53
2022-08-14T02:51:00.977Z,6.80
2022-08-14T02:53:29.316Z,7.17
2022-08-14T02:55:56.725Z,6.30
2022-08-14T02:58:31.149Z,7.50
2022-08-14T03:00:59.028Z,7.20
2022-08-14T03:03:26.207Z,6.57
2022-08-14T03:05:54.417Z,9.20
2022-08-14T03:08:22.499Z,7.10
2022-08-14T03:10:50.134Z,7.60
2022-08-14T03:13:21.182Z,8.53
2022-08-14T03:15:55.677Z,7.60
2022-08-14T03:18:32.039Z,7.60
2022-08-14T03:21:05.352Z,7.03
2022-08-14T03:23:37.934Z,7.93
2022-08-14T03:26:18.177Z,7.10
2022-08-14T03:28:56.977Z,7.80
2022-08-14T03:31:29.324Z,7.63
2022-08-14T03:33:56.847Z,8.27
2022-08-14T03:37:37.889Z,7.20
2022-08-14T03:39:23.008Z,8.23
2022-08-14T03:41:53.280Z,7.80
2022-08-14T03:45:19.169Z,8.20
2022-08-14T03:47:06.750Z,7.50
2022-08-14T03:49:35.222Z,9.40
2022-08-14T03:52:37.573Z,8.50
2022-08-14T03:54:54.900Z,9.13
2022-08-14T03:57:22.713Z,8.70
2022-08-14T03:59:49.418Z,7.67
2022-08-14T04:02:32.316Z,7.80
2022-08-14T04:05:08.119Z,6.70
2022-08-14T04:07:39.289Z,7.20
2022-08-14T04:10:17.198Z,6.63
2022-08-14T04:12:51.657Z,7.87
2022-08-14T04:15:20.024Z,8.07
2022-08-14T04:17:50.203Z,7.57
2022-08-14T04:20:25.587Z,8.00
2022-08-14T04:22:55.528Z,7.53
2022-08-14T04:25:22.375Z,6.93
2022-08-14T04:28:02.211Z,8.57
2022-08-14T04:30:32.455Z,6.30
2022-08-14T04:33:05.347Z,7.20
2022-08-14T04:35:56.368Z,7.07
2022-08-14T04:38:41.616Z,7.10
2022-08-14T04:41:30.370Z,6.80
2022-08-14T04:43:57.799Z,7.83
2022-08-14T04:46:56.956Z,7.00
2022-08-14T04:49:15.099Z,6.93
2022-08-14T04:51:46.787Z,7.00
2022-08-14T04:54:23.158Z,7.67
2022-08-14T04:56:51.204Z,7.20
2022-08-14T04:59:21.271Z,7.90
2022-08-14T05:01:53.911Z,6.83
2022-08-14T05:04:24.853Z,7.90
2022-08-14T05:06:53.697Z,7.17
2022-08-14T05:09:21.695Z,6.70
2022-08-14T05:11:49.948Z,7.80
2022-08-14T05:14:43.427Z,6.87
2022-08-14T05:17:05.348Z,7.33
2022-08-14T05:19:33.564Z,7.77
2022-08-14T05:22:18.949Z,8.00
2022-08-14T05:24:51.332Z,9.10
2022-08-14T05:27:22.749Z,6.93
2022-08-14T05:29:53.287Z,7.00
2022-08-14T05:32:20.416Z,7.20
2022-08-14T05:34:47.827Z,6.63
2022-08-14T05:37:15.375Z,6.47
2022-08-14T05:39:42.731Z,7.03
2022-08-14T05:42:21.332Z,6.40
2022-08-14T05:44:49.411Z,7.60
2022-08-14T05:47:20.651Z,7.80
2022-08-14T05:49:48.339Z,7.07
2022-08-14T05:52:18.115Z,7.33
2022-08-14T05:54:45.016Z,6.33
2022-08-14T05:57:11.546Z,6.73
2022-08-14T05:59:39.914Z,6.70
2022-08-14T06:02:10.941Z,6.47
2022-08-14T06:04:39.018Z,7.60
2022-08-14T06:07:06.089Z,6.80
2022-08-14T06:09:36.059Z,6.40
2022-08-14T06:12:08.446Z,7.80
2022-08-14T06:14:35.480Z,5.80
2022-08-14T06:17:03.832Z,6.73
2022-08-14T06:19:30.522Z,8.50
2022-08-14T06:21:59.366Z,7.57
2022-08-14T06:24:27.405Z,6.80
2022-08-14T06:27:04.340Z,7.13
2022-08-14T06:29:34.544Z,6.90
2022-08-14T06:32:37.619Z,5.67
2022-08-14T06:35:03.240Z,6.67
2022-08-14T06:37:46.961Z,6.03
2022-08-14T06:40:26.736Z,6.83
2022-08-14T06:42:56.440Z,7.60
2022-08-14T06:45:26.430Z,7.00
2022-08-14T06:47:54.384Z,6.60
2022-08-14T06:50:28.137Z,6.53
2022-08-14T06:52:55.649Z,7.73
2022-08-14T06:55:25.959Z,7.00
2022-08-14T06:57:56.047Z,6.50
2022-08-14T07:00:27.067Z,7.30
2022-08-14T07:03:15.915Z,6.73
2022-08-14T07:05:57.745Z,6.57
2022-08-14T07:08:31.883Z,6.87
2022-08-14T07:11:00.627Z,6.13
2022-08-14T07:13:28.295Z,7.53
2022-08-14T07:15:56.724Z,6.63
2022-08-14T07:18:30.649Z,6.40
2022-08-14T07:21:00.100Z,6.30
2022-08-14T07:23:27.537Z,6.80
2022-08-14T07:25:58.436Z,6.70
2022-08-14T07:28:27.353Z,6.47
2022-08-14T07:31:04.931Z,6.23
2022-08-14T07:33:42.000Z,6.30
2022-08-14T07:36:26.898Z,5.40
2022-08-14T07:39:02.975Z,6.50
2022-08-14T07:41:38.739Z,6.87
2022-08-14T07:44:32.790Z,5.80
2022-08-14T07:46:52.213Z,6.93
2022-08-14T07:49:20.028Z,6.90
2022-08-14T07:51:49.255Z,7.70
2022-08-14T07:54:23.544Z,5.80
2022-08-14T07:56:59.749Z,6.03
2022-08-14T07:59:42.182Z,6.97
2022-08-14T08:02:19.029Z,6.80
2022-08-14T08:04:50.726Z,6.13
2022-08-14T08:07:21.823Z,5.60
2022-08-14T08:09:51.027Z,5.93
2022-08-14T08:12:23.902Z,7.67
2022-08-14T08:15:05.816Z,6.10
2022-08-14T08:17:38.553Z,7.37
2022-08-14T08:20:09.070Z,5.70
2022-08-14T08:22:38.539Z,6.07
2022-08-14T08:25:13.477Z,6.87
2022-08-14T08:27:44.588Z,5.30
2022-08-14T08:30:12.307Z,5.87
2022-08-14T08:32:43.432Z,5.60
2022-08-14T08:35:16.802Z,6.43
2022-08-14T08:37:43.603Z,6.23
2022-08-14T08:40:11.048Z,5.33
2022-08-14T08:42:47.368Z,6.73
2022-08-14T08:45:20.628Z,6.17
2022-08-14T08:47:48.097Z,6.60
2022-08-14T08:52:59.852Z,5.50
2022-08-14T08:55:41.312Z,5.47
2022-08-14T08:58:19.999Z,5.57
2022-08-14T09:00:54.453Z,6.50
2022-08-14T09:03:25.627Z,6.50
2022-08-14T09:05:57.083Z,6.33
2022-08-14T09:08:31.328Z,6.37
2022-08-14T09:11:19.989Z,5.70
2022-08-14T09:13:52.673Z,5.90
2022-08-14T09:16:25.284Z,5.80
2022-08-14T09:18:53.861Z,6.30
2022-08-14T09:21:24.054Z,5.43
2022-08-14T09:24:28.468Z,5.57
2022-08-14T09:26:41.784Z,5.13
2022-08-14T09:29:10.413Z,6.30
2022-08-14T09:31:43.099Z,5.37
2022-08-14T09:34:58.319Z,6.13
2022-08-14T09:37:41.033Z,6.33
2022-08-14T09:40:51.173Z,5.70
2022-08-14T09:43:33.990Z,5.30
2022-08-14T09:46:07.102Z,5.67
2022-08-14T09:48:35.145Z,6.20
2022-08-14T09:54:17.680Z,6.60
2022-08-14T09:56:24.161Z,6.27
2022-08-14T09:58:59.204Z,5.90
2022-08-14T10:01:37.274Z,6.73
2022-08-14T10:04:17.763Z,6.87
2022-08-14T10:06:56.372Z,6.57
2022-08-14T10:09:24.704Z,7.00
2022-08-14T10:11:58.968Z,7.30
2022-08-14T10:14:35.833Z,7.70
2022-08-14T10:17:06.320Z,6.83
2022-08-14T10:19:35.614Z,7.63
2022-08-14T10:23:13.150Z,6.53
2022-08-14T10:24:54.082Z,6.00
2022-08-14T10:27:26.688Z,6.53
2022-08-14T10:29:55.746Z,6.97
2022-08-14T10:32:28.456Z,6.57
2022-08-14T10:35:13.249Z,6.60
2022-08-14T10:37:49.582Z,6.73
2022-08-14T10:40:38.743Z,7.23
2022-08-14T10:43:22.690Z,7.43
2022-08-14T10:46:03.503Z,7.37
2022-08-14T10:48:57.240Z,6.80
2022-08-14T10:51:30.175Z,7.00
2022-08-14T10:54:35.112Z,7.03
2022-08-14T10:56:55.861Z,6.43
2022-08-14T10:59:36.157Z,6.00
2022-08-14T11:02:17.644Z,6.60
2022-08-14T11:05:13.114Z,6.73
2022-08-14T11:07:52.194Z,5.80
2022-08-14T11:10:38.186Z,6.40
2022-08-14T11:13:05.048Z,6.77
2022-08-14T11:15:33.135Z,6.67
2022-08-14T11:18:01.337Z,6.80
2022-08-14T11:20:29.909Z,6.57
2022-08-14T11:23:00.708Z,7.27
2022-08-14T11:25:44.070Z,6.57
2022-08-14T11:28:47.380Z,6.60
2022-08-14T11:31:11.248Z,6.67
2022-08-14T11:33:38.746Z,8.00
2022-08-14T11:36:17.159Z,11.50
2022-08-14T11:38:46.032Z,6.40
2022-08-14T11:41:14.569Z,12.47
2022-08-14T11:43:57.983Z,6.97
2022-08-14T11:46:29.495Z,7.80
2022-08-14T11:49:03.909Z,9.20
2022-08-14T11:51:42.929Z,11.57
2022-08-14T11:54:20.128Z,9.00
2022-08-14T11:56:50.631Z,7.97
2022-08-14T11:59:18.675Z,6.00
2022-08-14T12:01:48.873Z,6.30
2022-08-14T12:04:31.714Z,5.63
2022-08-14T12:07:01.386Z,7.07
2022-08-14T12:09:30.255Z,7.07
2022-08-14T12:11:57.064Z,7.07
2022-08-14T12:14:30.798Z,6.53
2022-08-14T12:17:04.205Z,5.83
2022-08-14T12:19:33.419Z,6.50
2022-08-14T12:22:01.490Z,6.93
2022-08-14T12:24:36.382Z,6.30
2022-08-14T12:27:03.823Z,7.00
2022-08-14T12:29:31.813Z,7.80
2022-08-14T12:32:06.695Z,6.00
2022-08-14T12:34:37.056Z,6.40
2022-08-14T12:37:08.905Z,6.10
2022-08-14T12:39:40.107Z,6.00
2022-08-14T12:42:07.846Z,6.37
2022-08-14T12:44:39.527Z,6.70
2022-08-14T12:47:13.319Z,6.60
2022-08-14T12:49:49.776Z,6.10
2022-08-14T12:52:41.583Z,6.43
2022-08-14T12:55:21.618Z,7.67
2022-08-14T12:57:53.081Z,6.83
2022-08-14T13:00:23.960Z,6.70
2022-08-14T13:02:55.117Z,5.57
2022-08-14T13:05:29.950Z,6.10
2022-08-14T13:07:59.069Z,6.07
2022-08-14T13:10:47.282Z,5.70
2022-08-14T13:13:16.540Z,5.93
2022-08-14T13:15:45.733Z,5.70
2022-08-14T13:18:15.704Z,6.10
2022-08-14T13:20:48.094Z,6.93
2022-08-14T13:23:19.063Z,6.23
2022-08-14T13:25:58.082Z,7.07
2022-08-14T13:28:32.967Z,7.53
2022-08-14T13:31:11.001Z,6.70
2022-08-14T13:33:38.079Z,6.97
2022-08-14T13:36:08.299Z,6.60
2022-08-14T13:38:35.451Z,6.20
2022-08-14T13:41:02.961Z,6.20
2022-08-14T13:43:31.679Z,6.80
2022-08-14T13:46:04.011Z,6.93
2022-08-14T13:48:33.187Z,6.70
2022-08-14T13:51:07.946Z,6.37
2022-08-14T13:53:52.598Z,6.27
2022-08-14T13:56:36.492Z,7.63
2022-08-14T13:59:03.923Z,7.40
2022-08-14T14:01:43.015Z,6.50
2022-08-14T14:04:18.954Z,6.87
2022-08-14T14:06:48.584Z,7.50
2022-08-14T14:09:15.965Z,6.63
2022-08-14T14:11:44.001Z,7.30
2022-08-14T14:14:44.580Z,7.10
2022-08-14T14:16:58.522Z,7.20
2022-08-14T14:19:26.563Z,7.40
2022-08-14T14:21:56.343Z,7.97
2022-08-14T14:24:24.267Z,7.00
2022-08-14T14:27:18.368Z,6.60
2022-08-14T14:29:55.730Z,6.27
2022-08-14T14:32:31.309Z,7.00
2022-08-14T14:35:02.862Z,6.30
2022-08-14T14:37:30.585Z,6.83
2022-08-14T14:40:53.053Z,6.93
2022-08-14T14:42:53.284Z,6.20
2022-08-14T14:45:23.545Z,6.50
2022-08-14T14:47:59.425Z,6.20
2022-08-14T14:50:26.512Z,6.10
2022-08-14T14:53:00.774Z,8.80
2022-08-14T14:55:54.401Z,6.30
2022-08-14T14:58:30.564Z,6.43
2022-08-14T15:00:59.886Z,7.10
2022-08-14T15:03:26.717Z,5.80
2022-08-14T15:05:54.089Z,6.37
2022-08-14T15:08:26.738Z,5.90
2022-08-14T15:11:13.419Z,6.50
2022-08-14T15:13:43.000Z,5.80
2022-08-14T15:16:10.194Z,6.13
2022-08-14T15:18:41.921Z,5.97
2022-08-14T15:21:14.284Z,6.13
2022-08-14T15:23:44.041Z,5.70
2022-08-14T15:26:30.892Z,6.73
2022-08-14T15:29:02.754Z,6.40
2022-08-14T15:31:31.460Z,6.40
2022-08-14T15:34:45.929Z,6.17
2022-08-14T15:37:05.112Z,5.50
2022-08-14T15:39:35.668Z,6.50
2022-08-14T15:42:14.523Z,6.47
2022-08-14T15:44:56.645Z,6.17
2022-08-14T15:47:28.823Z,5.93
2022-08-14T15:49:59.281Z,6.10
2022-08-14T15:52:32.406Z,5.80
2022-08-14T15:55:04.307Z,6.10
2022-08-14T15:57:31.131Z,5.97
2022-08-14T16:00:21.516Z,5.93
2022-08-14T16:03:04.620Z,5.70
2022-08-14T16:05:38.658Z,6.40
2022-08-14T16:08:24.291Z,6.77
2022-08-14T16:10:55.719Z,6.80
2022-08-14T16:13:42.066Z,5.97
2022-08-14T16:16:34.989Z,6.73
2022-08-14T16:19:11.421Z,6.27
2022-08-14T16:22:02.690Z,5.90
2022-08-14T16:24:32.495Z,5.47
2022-08-14T16:27:00.696Z,5.77
2022-08-14T16:29:30.359Z,5.33
2022-08-14T16:32:00.212Z,5.47
2022-08-14T16:34:45.863Z,6.60
2022-08-14T16:37:19.065Z,6.20
2022-08-14T16:39:47.533Z,6.33
2022-08-14T16:43:02.790Z,5.60
2022-08-14T16:45:02.523Z,5.70
2022-08-14T16:47:34.893Z,6.17
2022-08-14T16:50:04.646Z,7.03
2022-08-14T16:52:44.388Z,6.73
2022-08-14T16:55:19.637Z,6.50
2022-08-14T16:57:51.925Z,8.13
2022-08-14T17:00:44.304Z,7.77
2022-08-14T17:03:12.411Z,8.40
2022-08-14T17:05:41.818Z,8.50
2022-08-14T17:08:32.562Z,8.10
2022-08-14T17:10:59.738Z,8.00
2022-08-14T17:13:58.267Z,7.70
2022-08-14T17:16:24.691Z,8.10
2022-08-14T17:18:55.575Z,6.77
2022-08-14T17:21:41.049Z,7.83
2022-08-14T17:24:58.319Z,9.67
2022-08-14T17:27:03.859Z,8.77
2022-08-14T17:29:33.664Z,7.90
2022-08-14T17:32:28.433Z,8.30
2022-08-14T17:34:55.258Z,8.20
2022-08-14T17:37:25.027Z,7.97
2022-08-14T17:40:00.648Z,8.10
2022-08-14T17:42:51.290Z,7.90
2022-08-14T17:45:28.691Z,8.63
2022-08-14T17:49:10.721Z,8.33
2022-08-14T17:51:03.554Z,8.80
2022-08-14T17:53:32.766Z,9.30
2022-08-14T17:56:04.004Z,9.37
2022-08-14T17:58:41.720Z,8.60
2022-08-14T18:01:12.843Z,8.97
2022-08-14T18:03:49.916Z,9.23
2022-08-14T18:06:40.030Z,7.60
2022-08-14T18:09:24.669Z,9.30
2022-08-14T18:11:54.521Z,7.30
2022-08-14T18:14:32.418Z,7.90
2022-08-14T18:17:12.314Z,8.17
2022-08-14T18:19:44.677Z,9.40
2022-08-14T18:22:31.929Z,10.07
2022-08-14T18:24:59.077Z,9.37
2022-08-14T18:27:39.600Z,10.60
2022-08-14T18:30:31.716Z,9.80
2022-08-14T18:32:58.041Z,9.50
2022-08-14T18:35:45.905Z,10.80
2022-08-14T18:38:45.739Z,11.13
2022-08-14T18:41:36.639Z,12.00
2022-08-14T18:44:10.495Z,11.77
2022-08-14T18:47:10.119Z,11.37
2022-08-14T18:50:04.333Z,11.37
2022-08-14T18:52:52.967Z,10.30
2022-08-14T18:55:20.612Z,9.70
2022-08-14T18:58:05.950Z,9.13
2022-08-14T19:00:52.931Z,10.33
2022-08-14T19:03:22.699Z,9.70
2022-08-14T19:05:49.242Z,9.43
2022-08-14T19:08:25.241Z,10.73
2022-08-14T19:11:03.854Z,9.30
2022-08-14T19:13:48.347Z,9.03
2022-08-14T19:16:23.018Z,8.20
2022-08-14T19:19:00.335Z,9.47
2022-08-14T19:21:35.381Z,9.93
2022-08-14T19:24:27.604Z,8.90
2022-08-14T19:27:23.886Z,9.13
2022-08-14T19:29:51.842Z,11.07
2022-08-14T19:32:39.662Z,10.53
2022-08-14T19:35:18.211Z,11.03
2022-08-14T19:37:48.463Z,12.27
2022-08-14T19:40:40.161Z,10.87
2022-08-14T19:43:09.209Z,9.27
2022-08-14T19:45:37.496Z,10.97
2022-08-14T19:48:11.681Z,10.73
2022-08-14T19:50:41.233Z,11.13
2022-08-14T19:53:17.588Z,9.13
2022-08-14T19:55:56.732Z,9.70
2022-08-14T19:58:29.957Z,10.17
2022-08-14T20:00:59.214Z,9.80
2022-08-14T20:03:25.855Z,9.83
2022-08-14T20:06:12.905Z,10.13
2022-08-14T20:10:58.895Z,9.60
2022-08-14T20:12:00.168Z,9.57
2022-08-14T20:14:27.906Z,10.43
2022-08-14T20:17:06.081Z,9.97
2022-08-14T20:19:37.443Z,9.50
2022-08-14T20:22:35.604Z,10.03
2022-08-14T20:24:54.539Z,9.40
2022-08-14T20:27:33.295Z,9.60
2022-08-14T20:30:29.049Z,10.50
2022-08-14T20:32:56.899Z,10.27
2022-08-14T20:35:24.486Z,11.10
2022-08-14T20:38:31.980Z,11.20
2022-08-14T20:40:58.267Z,12.57
2022-08-14T20:43:53.056Z,14.70
2022-08-14T20:46:38.667Z,11.60
2022-08-14T20:49:16.498Z,11.73
2022-08-14T20:51:58.784Z,10.97
2022-08-14T20:54:34.592Z,11.27
2022-08-14T20:57:10.488Z,10.90
2022-08-14T20:59:51.435Z,10.23
2022-08-14T21:02:38.904Z,9.00
2022-08-14T21:05:17.352Z,11.17
2022-08-14T21:07:50.361Z,10.77
2022-08-14T21:10:36.296Z,11.33
2022-08-14T21:14:19.073Z,10.47
2022-08-14T21:16:05.389Z,11.23
2022-08-14T21:18:58.837Z,13.00
2022-08-14T21:21:40.522Z,12.57
2022-08-14T21:24:38.829Z,13.00
2022-08-14T21:27:04.409Z,10.50
2022-08-14T21:29:40.840Z,11.60
2022-08-14T21:32:34.002Z,12.03
2022-08-14T21:35:08.074Z,11.73
2022-08-14T21:37:45.025Z,12.10
2022-08-14T21:40:18.629Z,11.97
2022-08-14T21:43:01.132Z,11.10
2022-08-14T21:45:27.742Z,11.63
2022-08-14T21:47:56.453Z,11.57
2022-08-14T21:50:56.628Z,12.10
2022-08-14T21:53:11.179Z,11.00
2022-08-14T22:02:43.460Z,13.70
2022-08-14T22:05:19.255Z,13.70
2022-08-14T22:07:47.001Z,11.20
2022-08-14T22:10:22.978Z,12.47
2022-08-14T22:13:00.990Z,11.60
2022-08-14T22:15:29.769Z,12.00
2022-08-14T22:17:58.330Z,11.10
2022-08-14T22:20:28.361Z,12.23
2022-08-14T22:22:56.846Z,12.37
2022-08-14T22:25:33.764Z,11.73
2022-08-14T22:28:05.806Z,12.20
2022-08-14T22:30:33.189Z,11.63
2022-08-14T22:33:00.155Z,11.60
2022-08-14T22:35:27.691Z,11.33
2022-08-14T22:38:35.062Z,12.70
2022-08-14T22:41:06.955Z,12.43
2022-08-14T22:43:31.202Z,10.73
2022-08-14T22:46:02.032Z,10.97
2022-08-14T22:48:29.625Z,10.90
2022-08-14T22:50:56.525Z,11.10
2022-08-14T22:53:23.899Z,11.20
2022-08-14T22:55:56.742Z,11.83
2022-08-14T22:58:31.518Z,11.47
2022-08-14T23:01:02.378Z,11.00
2022-08-14T23:03:34.049Z,12.23
2022-08-14T23:06:02.078Z,12.33
2022-08-14T23:08:59.490Z,11.60
2022-08-14T23:11:15.413Z,12.40
2022-08-14T23:13:46.045Z,12.07
2022-08-14T23:16:19.870Z,10.73
2022-08-14T23:18:48.392Z,12.63
2022-08-14T23:21:22.093Z,12.27
2022-08-14T23:23:55.077Z,11.20
2022-08-14T23:26:48.640Z,12.10
2022-08-14T23:29:15.715Z,12.23
2022-08-14T23:31:44.735Z,12.20
2022-08-14T23:34:20.652Z,12.87
2022-08-14T23:36:53.478Z,12.83
2022-08-14T23:39:30.272Z,12.10
2022-08-14T23:42:02.141Z,13.30
2022-08-14T23:44:32.212Z,11.47
2022-08-14T23:47:05.701Z,9.93
2022-08-14T23:49:41.247Z,11.37
2022-08-14T23:53:06.595Z,10.83
2022-08-14T23:55:11.977Z,11.27
2022-08-14T23:57:43.830Z,11.27
